sensor_id;sensor_type;location;lat;lon;timestamp;pressure;altitude;pressure_sealevel;temperature;humidity
50632;BME280;49583;45.590;-122.498;2022-12-05T00:01:54;101102.89;;;1.09;75.11
50632;BME280;49583;45.590;-122.498;2022-12-05T00:04:09;101099.20;;;1.06;75.12
50632;BME280;49583;45.590;-122.498;2022-12-05T00:06:24;101097.59;;;1.06;75.30
50632;BME280;49583;45.590;-122.498;2022-12-05T00:08:39;101096.89;;;1.06;75.45
50632;BME280;49583;45.590;-122.498;2022-12-05T00:10:52;101100.18;;;1.06;75.55
50632;BME280;49583;45.590;-122.498;2022-12-05T00:13:05;101101.91;;;1.04;75.44
50632;BME280;49583;45.590;-122.498;2022-12-05T00:15:19;101104.94;;;1.05;75.38
50632;BME280;49583;45.590;-122.498;2022-12-05T00:17:32;101106.22;;;1.05;75.27
50632;BME280;49583;45.590;-122.498;2022-12-05T00:19:45;101108.65;;;1.10;75.35
50632;BME280;49583;45.590;-122.498;2022-12-05T00:22:06;101108.74;;;1.11;75.46
50632;BME280;49583;45.590;-122.498;2022-12-05T00:24:19;101110.10;;;1.11;75.36
50632;BME280;49583;45.590;-122.498;2022-12-05T00:26:33;101107.88;;;1.11;75.73
50632;BME280;49583;45.590;-122.498;2022-12-05T00:28:47;101103.83;;;1.11;75.58
50632;BME280;49583;45.590;-122.498;2022-12-05T00:31:03;101106.09;;;1.14;75.63
50632;BME280;49583;45.590;-122.498;2022-12-05T00:33:16;101107.60;;;1.14;75.46
50632;BME280;49583;45.590;-122.498;2022-12-05T00:35:30;101105.58;;;1.15;75.55
50632;BME280;49583;45.590;-122.498;2022-12-05T00:37:44;101107.66;;;1.17;75.44
50632;BME280;49583;45.590;-122.498;2022-12-05T00:39:57;101110.35;;;1.17;75.39
50632;BME280;49583;45.590;-122.498;2022-12-05T00:42:12;101115.73;;;1.18;75.47
50632;BME280;49583;45.590;-122.498;2022-12-05T00:44:25;101115.52;;;1.19;75.40
50632;BME280;49583;45.590;-122.498;2022-12-05T00:46:39;101118.11;;;1.20;75.35
50632;BME280;49583;45.590;-122.498;2022-12-05T00:48:53;101117.83;;;1.20;75.27
50632;BME280;49583;45.590;-122.498;2022-12-05T00:51:09;101124.62;;;1.21;75.29
50632;BME280;49583;45.590;-122.498;2022-12-05T00:53:23;101124.36;;;1.20;75.43
50632;BME280;49583;45.590;-122.498;2022-12-05T00:55:40;101123.98;;;1.20;75.33
50632;BME280;49583;45.590;-122.498;2022-12-05T00:57:53;101126.05;;;1.18;75.45
50632;BME280;49583;45.590;-122.498;2022-12-05T01:00:08;101125.87;;;1.16;75.39
50632;BME280;49583;45.590;-122.498;2022-12-05T01:02:21;101125.86;;;1.15;75.38
50632;BME280;49583;45.590;-122.498;2022-12-05T01:04:37;101128.15;;;1.15;75.51
50632;BME280;49583;45.590;-122.498;2022-12-05T01:06:52;101124.76;;;1.14;75.54
50632;BME280;49583;45.590;-122.498;2022-12-05T01:09:07;101124.54;;;1.14;75.48
50632;BME280;49583;45.590;-122.498;2022-12-05T01:11:21;101125.66;;;1.16;75.48
50632;BME280;49583;45.590;-122.498;2022-12-05T01:13:36;101126.96;;;1.15;75.75
50632;BME280;49583;45.590;-122.498;2022-12-05T01:15:50;101127.35;;;1.13;75.65
50632;BME280;49583;45.590;-122.498;2022-12-05T01:18:04;101131.23;;;1.12;75.65
50632;BME280;49583;45.590;-122.498;2022-12-05T01:20:18;101131.88;;;1.11;76.01
50632;BME280;49583;45.590;-122.498;2022-12-05T01:22:31;101136.00;;;1.09;75.81
50632;BME280;49583;45.590;-122.498;2022-12-05T01:24:44;101140.48;;;1.09;76.08
50632;BME280;49583;45.590;-122.498;2022-12-05T01:26:59;101140.63;;;1.07;75.83
50632;BME280;49583;45.590;-122.498;2022-12-05T01:29:14;101143.81;;;1.06;75.89
50632;BME280;49583;45.590;-122.498;2022-12-05T01:31:29;101139.61;;;1.07;75.96
50632;BME280;49583;45.590;-122.498;2022-12-05T01:33:44;101138.14;;;1.07;75.89
50632;BME280;49583;45.590;-122.498;2022-12-05T01:35:58;101136.32;;;1.06;76.07
50632;BME280;49583;45.590;-122.498;2022-12-05T01:38:13;101135.78;;;1.05;76.10
50632;BME280;49583;45.590;-122.498;2022-12-05T01:40:27;101136.43;;;1.04;76.02
50632;BME280;49583;45.590;-122.498;2022-12-05T01:42:40;101136.22;;;1.05;76.12
50632;BME280;49583;45.590;-122.498;2022-12-05T01:45:11;101141.05;;;1.06;76.12
50632;BME280;49583;45.590;-122.498;2022-12-05T01:47:23;101131.80;;;1.09;76.10
50632;BME280;49583;45.590;-122.498;2022-12-05T01:49:42;101135.67;;;1.10;76.08
50632;BME280;49583;45.590;-122.498;2022-12-05T01:51:58;101134.10;;;1.11;76.03
50632;BME280;49583;45.590;-122.498;2022-12-05T01:54:13;101137.27;;;1.12;75.91
50632;BME280;49583;45.590;-122.498;2022-12-05T01:56:27;101136.73;;;1.14;76.10
50632;BME280;49583;45.590;-122.498;2022-12-05T01:58:44;101139.84;;;1.20;76.32
50632;BME280;49583;45.590;-122.498;2022-12-05T02:00:58;101141.20;;;1.24;76.24
50632;BME280;49583;45.590;-122.498;2022-12-05T02:03:16;101140.10;;;1.25;76.19
50632;BME280;49583;45.590;-122.498;2022-12-05T02:05:31;101137.41;;;1.24;75.98
50632;BME280;49583;45.590;-122.498;2022-12-05T02:07:45;101146.69;;;1.25;75.91
50632;BME280;49583;45.590;-122.498;2022-12-05T02:09:59;101142.89;;;1.24;76.13
50632;BME280;49583;45.590;-122.498;2022-12-05T02:12:12;101148.37;;;1.25;76.01
50632;BME280;49583;45.590;-122.498;2022-12-05T02:14:31;101145.48;;;1.27;76.07
50632;BME280;49583;45.590;-122.498;2022-12-05T02:16:52;101144.19;;;1.28;75.90
50632;BME280;49583;45.590;-122.498;2022-12-05T02:19:22;101143.91;;;1.29;75.73
50632;BME280;49583;45.590;-122.498;2022-12-05T02:24:32;101137.67;;;1.32;75.81
50632;BME280;49583;45.590;-122.498;2022-12-05T02:27:00;101135.70;;;1.31;75.79
50632;BME280;49583;45.590;-122.498;2022-12-05T02:32:08;101151.64;;;1.32;75.83
50632;BME280;49583;45.590;-122.498;2022-12-05T02:34:26;101150.02;;;1.32;75.73
50632;BME280;49583;45.590;-122.498;2022-12-05T02:36:46;101150.34;;;1.32;75.93
50632;BME280;49583;45.590;-122.498;2022-12-05T02:39:05;101150.65;;;1.32;75.97
50632;BME280;49583;45.590;-122.498;2022-12-05T02:41:23;101154.33;;;1.33;75.90
50632;BME280;49583;45.590;-122.498;2022-12-05T02:43:43;101153.67;;;1.34;75.97
50632;BME280;49583;45.590;-122.498;2022-12-05T02:46:03;101153.98;;;1.36;76.07
50632;BME280;49583;45.590;-122.498;2022-12-05T02:48:20;101159.90;;;1.39;75.97
50632;BME280;49583;45.590;-122.498;2022-12-05T02:50:35;101161.31;;;1.40;75.88
50632;BME280;49583;45.590;-122.498;2022-12-05T02:52:51;101159.58;;;1.42;75.80
50632;BME280;49583;45.590;-122.498;2022-12-05T02:55:07;101158.88;;;1.42;75.79
50632;BME280;49583;45.590;-122.498;2022-12-05T02:57:22;101159.41;;;1.42;75.78
50632;BME280;49583;45.590;-122.498;2022-12-05T02:59:37;101156.54;;;1.44;75.86
50632;BME280;49583;45.590;-122.498;2022-12-05T03:01:51;101163.48;;;1.46;75.94
50632;BME280;49583;45.590;-122.498;2022-12-05T03:04:05;101166.35;;;1.49;75.86
50632;BME280;49583;45.590;-122.498;2022-12-05T03:06:22;101165.79;;;1.52;75.80
50632;BME280;49583;45.590;-122.498;2022-12-05T03:08:41;101168.70;;;1.56;75.96
50632;BME280;49583;45.590;-122.498;2022-12-05T03:10:57;101167.55;;;1.57;75.91
50632;BME280;49583;45.590;-122.498;2022-12-05T03:13:15;101167.45;;;1.58;75.73
50632;BME280;49583;45.590;-122.498;2022-12-05T03:15:33;101174.46;;;1.59;75.72
50632;BME280;49583;45.590;-122.498;2022-12-05T03:17:54;101177.77;;;1.58;75.71
50632;BME280;49583;45.590;-122.498;2022-12-05T03:20:15;101185.70;;;1.58;75.58
50632;BME280;49583;45.590;-122.498;2022-12-05T03:22:34;101183.85;;;1.59;75.74
50632;BME280;49583;45.590;-122.498;2022-12-05T03:24:50;101187.74;;;1.59;75.69
50632;BME280;49583;45.590;-122.498;2022-12-05T03:27:08;101188.02;;;1.58;75.60
50632;BME280;49583;45.590;-122.498;2022-12-05T03:29:28;101187.10;;;1.58;75.54
50632;BME280;49583;45.590;-122.498;2022-12-05T03:31:47;101188.98;;;1.57;75.40
50632;BME280;49583;45.590;-122.498;2022-12-05T03:34:09;101189.90;;;1.54;75.54
50632;BME280;49583;45.590;-122.498;2022-12-05T03:36:27;101191.33;;;1.51;75.54
50632;BME280;49583;45.590;-122.498;2022-12-05T03:38:43;101188.53;;;1.50;75.52
50632;BME280;49583;45.590;-122.498;2022-12-05T03:41:03;101181.01;;;1.47;75.51
50632;BME280;49583;45.590;-122.498;2022-12-05T03:43:24;101192.34;;;1.47;75.67
50632;BME280;49583;45.590;-122.498;2022-12-05T03:45:45;101191.48;;;1.46;75.54
50632;BME280;49583;45.590;-122.498;2022-12-05T03:48:06;101188.10;;;1.46;75.47
50632;BME280;49583;45.590;-122.498;2022-12-05T03:50:26;101189.66;;;1.46;75.57
50632;BME280;49583;45.590;-122.498;2022-12-05T03:52:43;101194.89;;;1.47;75.67
50632;BME280;49583;45.590;-122.498;2022-12-05T03:55:19;101196.98;;;1.47;75.66
50632;BME280;49583;45.590;-122.498;2022-12-05T03:57:39;101199.92;;;1.46;75.62
50632;BME280;49583;45.590;-122.498;2022-12-05T03:59:58;101195.07;;;1.46;75.66
50632;BME280;49583;45.590;-122.498;2022-12-05T04:02:17;101193.30;;;1.47;75.62
50632;BME280;49583;45.590;-122.498;2022-12-05T04:04:37;101194.48;;;1.48;75.65
50632;BME280;49583;45.590;-122.498;2022-12-05T04:06:52;101195.20;;;1.47;75.64
50632;BME280;49583;45.590;-122.498;2022-12-05T04:09:08;101191.07;;;1.46;75.60
50632;BME280;49583;45.590;-122.498;2022-12-05T04:11:29;101190.48;;;1.45;75.71
50632;BME280;49583;45.590;-122.498;2022-12-05T04:13:49;101196.31;;;1.46;75.65
50632;BME280;49583;45.590;-122.498;2022-12-05T04:16:07;101196.48;;;1.45;75.73
50632;BME280;49583;45.590;-122.498;2022-12-05T04:18:43;101195.62;;;1.45;75.78
50632;BME280;49583;45.590;-122.498;2022-12-05T04:20:59;101195.67;;;1.42;75.80
50632;BME280;49583;45.590;-122.498;2022-12-05T04:23:31;101196.55;;;1.41;75.89
50632;BME280;49583;45.590;-122.498;2022-12-05T04:25:53;101196.02;;;1.41;75.83
50632;BME280;49583;45.590;-122.498;2022-12-05T04:28:23;101194.94;;;1.41;75.91
50632;BME280;49583;45.590;-122.498;2022-12-05T04:30:42;101194.72;;;1.41;75.79
50632;BME280;49583;45.590;-122.498;2022-12-05T04:33:03;101190.04;;;1.40;75.96
50632;BME280;49583;45.590;-122.498;2022-12-05T04:35:21;101187.20;;;1.39;76.03
50632;BME280;49583;45.590;-122.498;2022-12-05T04:37:39;101185.33;;;1.38;75.96
50632;BME280;49583;45.590;-122.498;2022-12-05T04:39:56;101185.05;;;1.38;76.07
50632;BME280;49583;45.590;-122.498;2022-12-05T04:42:13;101187.67;;;1.39;76.00
50632;BME280;49583;45.590;-122.498;2022-12-05T04:44:32;101184.14;;;1.41;76.02
50632;BME280;49583;45.590;-122.498;2022-12-05T04:46:47;101189.05;;;1.41;76.04
50632;BME280;49583;45.590;-122.498;2022-12-05T04:49:04;101186.30;;;1.41;76.10
50632;BME280;49583;45.590;-122.498;2022-12-05T04:51:21;101187.74;;;1.42;75.94
50632;BME280;49583;45.590;-122.498;2022-12-05T04:53:37;101194.92;;;1.44;75.93
50632;BME280;49583;45.590;-122.498;2022-12-05T04:55:55;101197.02;;;1.45;75.96
50632;BME280;49583;45.590;-122.498;2022-12-05T04:58:12;101192.84;;;1.46;75.88
50632;BME280;49583;45.590;-122.498;2022-12-05T05:00:29;101190.35;;;1.47;75.80
50632;BME280;49583;45.590;-122.498;2022-12-05T05:02:46;101189.90;;;1.47;75.90
50632;BME280;49583;45.590;-122.498;2022-12-05T05:05:02;101190.31;;;1.45;75.78
50632;BME280;49583;45.590;-122.498;2022-12-05T05:07:20;101186.55;;;1.43;75.86
50632;BME280;49583;45.590;-122.498;2022-12-05T05:09:34;101186.45;;;1.42;75.80
50632;BME280;49583;45.590;-122.498;2022-12-05T05:11:49;101183.70;;;1.41;75.89
50632;BME280;49583;45.590;-122.498;2022-12-05T05:14:03;101183.20;;;1.39;75.99
50632;BME280;49583;45.590;-122.498;2022-12-05T05:16:20;101183.98;;;1.38;75.99
50632;BME280;49583;45.590;-122.498;2022-12-05T05:18:34;101185.81;;;1.38;76.01
50632;BME280;49583;45.590;-122.498;2022-12-05T05:20:48;101195.20;;;1.38;76.07
50632;BME280;49583;45.590;-122.498;2022-12-05T05:23:03;101199.30;;;1.38;75.95
50632;BME280;49583;45.590;-122.498;2022-12-05T05:25:17;101210.20;;;1.37;76.01
50632;BME280;49583;45.590;-122.498;2022-12-05T05:27:30;101213.02;;;1.38;75.94
50632;BME280;49583;45.590;-122.498;2022-12-05T05:29:44;101215.23;;;1.37;75.96
50632;BME280;49583;45.590;-122.498;2022-12-05T05:31:59;101216.41;;;1.38;76.01
50632;BME280;49583;45.590;-122.498;2022-12-05T05:34:13;101220.19;;;1.38;76.04
50632;BME280;49583;45.590;-122.498;2022-12-05T05:36:33;101221.86;;;1.38;75.84
50632;BME280;49583;45.590;-122.498;2022-12-05T05:38:47;101226.02;;;1.38;75.96
50632;BME280;49583;45.590;-122.498;2022-12-05T05:41:10;101224.50;;;1.38;75.80
50632;BME280;49583;45.590;-122.498;2022-12-05T05:43:24;101226.19;;;1.40;75.81
50632;BME280;49583;45.590;-122.498;2022-12-05T05:45:37;101221.14;;;1.39;75.77
50632;BME280;49583;45.590;-122.498;2022-12-05T05:47:51;101220.08;;;1.38;75.86
50632;BME280;49583;45.590;-122.498;2022-12-05T05:50:06;101213.98;;;1.38;75.85
50632;BME280;49583;45.590;-122.498;2022-12-05T05:52:29;101206.60;;;1.40;75.97
50632;BME280;49583;45.590;-122.498;2022-12-05T05:54:47;101208.28;;;1.40;75.81
50632;BME280;49583;45.590;-122.498;2022-12-05T05:57:01;101208.16;;;1.41;75.72
50632;BME280;49583;45.590;-122.498;2022-12-05T05:59:17;101210.95;;;1.43;75.52
50632;BME280;49583;45.590;-122.498;2022-12-05T06:01:34;101213.05;;;1.44;75.61
50632;BME280;49583;45.590;-122.498;2022-12-05T06:03:48;101213.27;;;1.45;75.56
50632;BME280;49583;45.590;-122.498;2022-12-05T06:06:08;101210.98;;;1.46;75.57
50632;BME280;49583;45.590;-122.498;2022-12-05T06:08:22;101210.32;;;1.47;75.41
50632;BME280;49583;45.590;-122.498;2022-12-05T06:10:36;101211.65;;;1.47;75.37
50632;BME280;49583;45.590;-122.498;2022-12-05T06:12:51;101209.59;;;1.49;75.32
50632;BME280;49583;45.590;-122.498;2022-12-05T06:15:05;101204.64;;;1.47;75.35
50632;BME280;49583;45.590;-122.498;2022-12-05T06:17:19;101211.73;;;1.51;75.31
50632;BME280;49583;45.590;-122.498;2022-12-05T06:19:34;101213.61;;;1.51;75.27
50632;BME280;49583;45.590;-122.498;2022-12-05T06:21:49;101217.08;;;1.52;75.24
50632;BME280;49583;45.590;-122.498;2022-12-05T06:24:03;101224.09;;;1.52;75.16
50632;BME280;49583;45.590;-122.498;2022-12-05T06:26:18;101225.39;;;1.52;75.20
50632;BME280;49583;45.590;-122.498;2022-12-05T06:28:31;101230.14;;;1.51;75.06
50632;BME280;49583;45.590;-122.498;2022-12-05T06:30:46;101229.25;;;1.49;75.03
50632;BME280;49583;45.590;-122.498;2022-12-05T06:32:59;101234.66;;;1.48;75.09
50632;BME280;49583;45.590;-122.498;2022-12-05T06:35:12;101236.79;;;1.45;75.02
50632;BME280;49583;45.590;-122.498;2022-12-05T06:37:27;101238.41;;;1.45;75.13
50632;BME280;49583;45.590;-122.498;2022-12-05T06:39:42;101234.47;;;1.45;75.12
50632;BME280;49583;45.590;-122.498;2022-12-05T06:41:55;101235.23;;;1.45;75.17
50632;BME280;49583;45.590;-122.498;2022-12-05T06:44:08;101230.00;;;1.45;75.21
50632;BME280;49583;45.590;-122.498;2022-12-05T06:46:21;101226.80;;;1.46;75.10
50632;BME280;49583;45.590;-122.498;2022-12-05T06:48:35;101230.67;;;1.47;75.25
50632;BME280;49583;45.590;-122.498;2022-12-05T06:50:52;101229.83;;;1.49;75.25
50632;BME280;49583;45.590;-122.498;2022-12-05T06:53:05;101226.09;;;1.52;75.20
50632;BME280;49583;45.590;-122.498;2022-12-05T06:55:18;101231.08;;;1.54;75.10
50632;BME280;49583;45.590;-122.498;2022-12-05T06:57:32;101235.36;;;1.56;75.04
50632;BME280;49583;45.590;-122.498;2022-12-05T06:59:45;101243.67;;;1.58;75.02
50632;BME280;49583;45.590;-122.498;2022-12-05T07:01:59;101244.73;;;1.60;75.03
50632;BME280;49583;45.590;-122.498;2022-12-05T07:04:17;101248.41;;;1.64;75.09
50632;BME280;49583;45.590;-122.498;2022-12-05T07:06:34;101246.67;;;1.65;74.94
50632;BME280;49583;45.590;-122.498;2022-12-05T07:08:48;101243.37;;;1.67;74.96
50632;BME280;49583;45.590;-122.498;2022-12-05T07:11:01;101243.52;;;1.70;74.82
50632;BME280;49583;45.590;-122.498;2022-12-05T07:13:16;101245.27;;;1.71;74.75
50632;BME280;49583;45.590;-122.498;2022-12-05T07:15:29;101245.36;;;1.72;74.76
50632;BME280;49583;45.590;-122.498;2022-12-05T07:17:42;101243.73;;;1.74;74.78
50632;BME280;49583;45.590;-122.498;2022-12-05T07:19:56;101241.55;;;1.76;74.71
50632;BME280;49583;45.590;-122.498;2022-12-05T07:22:10;101240.89;;;1.78;74.72
50632;BME280;49583;45.590;-122.498;2022-12-05T07:24:25;101241.43;;;1.81;74.71
50632;BME280;49583;45.590;-122.498;2022-12-05T07:26:39;101241.43;;;1.81;74.61
50632;BME280;49583;45.590;-122.498;2022-12-05T07:28:54;101240.93;;;1.82;74.54
50632;BME280;49583;45.590;-122.498;2022-12-05T07:31:09;101239.38;;;1.82;74.47
50632;BME280;49583;45.590;-122.498;2022-12-05T07:33:23;101237.42;;;1.83;74.46
50632;BME280;49583;45.590;-122.498;2022-12-05T07:35:36;101240.12;;;1.84;74.46
50632;BME280;49583;45.590;-122.498;2022-12-05T07:37:50;101244.25;;;1.85;74.43
50632;BME280;49583;45.590;-122.498;2022-12-05T07:40:04;101244.65;;;1.87;74.35
50632;BME280;49583;45.590;-122.498;2022-12-05T07:42:18;101248.42;;;1.88;74.29
50632;BME280;49583;45.590;-122.498;2022-12-05T07:44:32;101245.58;;;1.86;74.24
50632;BME280;49583;45.590;-122.498;2022-12-05T07:46:45;101248.18;;;1.86;74.10
50632;BME280;49583;45.590;-122.498;2022-12-05T07:48:59;101247.04;;;1.86;74.21
50632;BME280;49583;45.590;-122.498;2022-12-05T07:51:12;101245.09;;;1.87;74.16
50632;BME280;49583;45.590;-122.498;2022-12-05T07:53:26;101242.21;;;1.89;74.19
50632;BME280;49583;45.590;-122.498;2022-12-05T07:55:42;101241.11;;;1.91;74.12
50632;BME280;49583;45.590;-122.498;2022-12-05T07:57:55;101243.69;;;1.92;74.29
50632;BME280;49583;45.590;-122.498;2022-12-05T08:00:11;101245.55;;;1.94;74.19
50632;BME280;49583;45.590;-122.498;2022-12-05T08:02:26;101244.73;;;1.96;74.11
50632;BME280;49583;45.590;-122.498;2022-12-05T08:04:39;101246.38;;;1.97;74.20
50632;BME280;49583;45.590;-122.498;2022-12-05T08:06:53;101244.59;;;1.99;74.17
50632;BME280;49583;45.590;-122.498;2022-12-05T08:09:06;101242.14;;;2.01;74.24
50632;BME280;49583;45.590;-122.498;2022-12-05T08:11:21;101240.60;;;2.02;74.26
50632;BME280;49583;45.590;-122.498;2022-12-05T08:13:36;101236.79;;;2.04;74.23
50632;BME280;49583;45.590;-122.498;2022-12-05T08:15:50;101232.30;;;2.05;74.20
50632;BME280;49583;45.590;-122.498;2022-12-05T08:18:05;101233.33;;;2.05;74.07
50632;BME280;49583;45.590;-122.498;2022-12-05T08:20:18;101230.89;;;2.06;74.06
50632;BME280;49583;45.590;-122.498;2022-12-05T08:22:31;101230.35;;;2.07;73.94
50632;BME280;49583;45.590;-122.498;2022-12-05T08:24:45;101228.55;;;2.08;73.97
50632;BME280;49583;45.590;-122.498;2022-12-05T08:27:05;101223.30;;;2.08;73.88
50632;BME280;49583;45.590;-122.498;2022-12-05T08:29:21;101221.69;;;2.08;73.91
50632;BME280;49583;45.590;-122.498;2022-12-05T08:31:35;101219.56;;;2.09;73.86
50632;BME280;49583;45.590;-122.498;2022-12-05T08:33:51;101220.16;;;2.08;73.79
50632;BME280;49583;45.590;-122.498;2022-12-05T08:36:10;101218.96;;;2.09;73.88
50632;BME280;49583;45.590;-122.498;2022-12-05T08:38:23;101219.57;;;2.09;73.92
50632;BME280;49583;45.590;-122.498;2022-12-05T08:40:37;101221.70;;;2.07;73.81
50632;BME280;49583;45.590;-122.498;2022-12-05T08:42:50;101223.27;;;2.07;73.90
50632;BME280;49583;45.590;-122.498;2022-12-05T08:45:03;101226.83;;;2.08;73.83
50632;BME280;49583;45.590;-122.498;2022-12-05T08:47:17;101226.48;;;2.08;74.03
50632;BME280;49583;45.590;-122.498;2022-12-05T08:49:30;101226.21;;;2.09;74.08
50632;BME280;49583;45.590;-122.498;2022-12-05T08:51:43;101228.19;;;2.10;74.27
50632;BME280;49583;45.590;-122.498;2022-12-05T08:53:57;101225.48;;;2.10;74.28
50632;BME280;49583;45.590;-122.498;2022-12-05T08:56:10;101226.83;;;2.10;74.35
50632;BME280;49583;45.590;-122.498;2022-12-05T08:58:25;101222.06;;;2.11;74.39
50632;BME280;49583;45.590;-122.498;2022-12-05T09:00:38;101223.09;;;2.11;74.46
50632;BME280;49583;45.590;-122.498;2022-12-05T09:02:54;101218.44;;;2.11;74.34
50632;BME280;49583;45.590;-122.498;2022-12-05T09:05:09;101223.19;;;2.12;74.55
50632;BME280;49583;45.590;-122.498;2022-12-05T09:07:38;101225.77;;;2.13;74.45
50632;BME280;49583;45.590;-122.498;2022-12-05T09:09:51;101223.73;;;2.13;74.61
50632;BME280;49583;45.590;-122.498;2022-12-05T09:12:05;101219.89;;;2.12;74.55
50632;BME280;49583;45.590;-122.498;2022-12-05T09:14:18;101219.63;;;2.12;74.56
50632;BME280;49583;45.590;-122.498;2022-12-05T09:16:33;101214.88;;;2.12;74.65
50632;BME280;49583;45.590;-122.498;2022-12-05T09:18:49;101210.92;;;2.11;74.62
50632;BME280;49583;45.590;-122.498;2022-12-05T09:21:07;101210.28;;;2.12;74.70
50632;BME280;49583;45.590;-122.498;2022-12-05T09:23:21;101210.06;;;2.12;74.64
50632;BME280;49583;45.590;-122.498;2022-12-05T09:25:34;101198.11;;;2.12;74.71
50632;BME280;49583;45.590;-122.498;2022-12-05T09:27:47;101198.00;;;2.13;74.71
50632;BME280;49583;45.590;-122.498;2022-12-05T09:30:00;101189.47;;;2.13;74.80
50632;BME280;49583;45.590;-122.498;2022-12-05T09:32:14;101190.82;;;2.12;74.75
50632;BME280;49583;45.590;-122.498;2022-12-05T09:34:27;101190.61;;;2.11;74.76
50632;BME280;49583;45.590;-122.498;2022-12-05T09:36:41;101191.33;;;2.10;74.83
50632;BME280;49583;45.590;-122.498;2022-12-05T09:38:57;101192.69;;;2.10;74.87
50632;BME280;49583;45.590;-122.498;2022-12-05T09:41:21;101196.41;;;2.10;74.96
50632;BME280;49583;45.590;-122.498;2022-12-05T09:43:56;101194.85;;;2.10;74.80
50632;BME280;49583;45.590;-122.498;2022-12-05T09:46:20;101192.65;;;2.09;74.71
50632;BME280;49583;45.590;-122.498;2022-12-05T09:48:46;101190.96;;;2.06;74.40
50632;BME280;49583;45.590;-122.498;2022-12-05T09:51:02;101190.69;;;2.02;74.14
50632;BME280;49583;45.590;-122.498;2022-12-05T09:53:26;101193.55;;;1.98;73.96
50632;BME280;49583;45.590;-122.498;2022-12-05T09:55:48;101192.34;;;1.95;73.90
50632;BME280;49583;45.590;-122.498;2022-12-05T09:58:09;101196.61;;;1.91;73.88
50632;BME280;49583;45.590;-122.498;2022-12-05T10:00:26;101198.36;;;1.88;73.69
50632;BME280;49583;45.590;-122.498;2022-12-05T10:02:49;101197.95;;;1.87;73.83
50632;BME280;49583;45.590;-122.498;2022-12-05T10:05:08;101205.38;;;1.88;73.83
50632;BME280;49583;45.590;-122.498;2022-12-05T10:07:27;101200.79;;;1.88;73.78
50632;BME280;49583;45.590;-122.498;2022-12-05T10:09:59;101197.45;;;1.87;73.79
50632;BME280;49583;45.590;-122.498;2022-12-05T10:12:28;101196.37;;;1.87;73.92
50632;BME280;49583;45.590;-122.498;2022-12-05T10:14:55;101198.64;;;1.87;74.03
50632;BME280;49583;45.590;-122.498;2022-12-05T10:17:19;101196.30;;;1.85;73.99
50632;BME280;49583;45.590;-122.498;2022-12-05T10:19:38;101199.36;;;1.81;74.02
50632;BME280;49583;45.590;-122.498;2022-12-05T10:21:56;101203.40;;;1.78;73.99
50632;BME280;49583;45.590;-122.498;2022-12-05T10:24:16;101204.24;;;1.75;74.05
50632;BME280;49583;45.590;-122.498;2022-12-05T10:26:31;101207.45;;;1.73;74.12
50632;BME280;49583;45.590;-122.498;2022-12-05T10:28:51;101204.98;;;1.71;74.07
50632;BME280;49583;45.590;-122.498;2022-12-05T10:31:12;101207.03;;;1.68;74.08
50632;BME280;49583;45.590;-122.498;2022-12-05T10:33:30;101211.36;;;1.66;74.23
50632;BME280;49583;45.590;-122.498;2022-12-05T10:35:48;101214.98;;;1.64;74.22
50632;BME280;49583;45.590;-122.498;2022-12-05T10:38:06;101216.45;;;1.64;74.31
50632;BME280;49583;45.590;-122.498;2022-12-05T10:40:22;101213.05;;;1.64;74.52
50632;BME280;49583;45.590;-122.498;2022-12-05T10:42:38;101209.76;;;1.63;74.51
50632;BME280;49583;45.590;-122.498;2022-12-05T10:44:53;101212.54;;;1.62;74.56
50632;BME280;49583;45.590;-122.498;2022-12-05T10:47:09;101215.26;;;1.61;74.53
50632;BME280;49583;45.590;-122.498;2022-12-05T10:49:23;101211.27;;;1.59;74.52
50632;BME280;49583;45.590;-122.498;2022-12-05T10:51:37;101214.08;;;1.59;74.45
50632;BME280;49583;45.590;-122.498;2022-12-05T10:53:50;101215.33;;;1.58;74.56
50632;BME280;49583;45.590;-122.498;2022-12-05T10:56:04;101214.80;;;1.57;74.62
50632;BME280;49583;45.590;-122.498;2022-12-05T10:58:39;101217.88;;;1.55;74.52
50632;BME280;49583;45.590;-122.498;2022-12-05T11:01:15;101214.72;;;1.54;74.55
50632;BME280;49583;45.590;-122.498;2022-12-05T11:03:31;101206.91;;;1.52;74.64
50632;BME280;49583;45.590;-122.498;2022-12-05T11:05:46;101205.68;;;1.51;74.63
50632;BME280;49583;45.590;-122.498;2022-12-05T11:08:01;101208.13;;;1.50;74.66
50632;BME280;49583;45.590;-122.498;2022-12-05T11:10:24;101207.48;;;1.48;74.60
50632;BME280;49583;45.590;-122.498;2022-12-05T11:12:40;101202.55;;;1.47;74.64
50632;BME280;49583;45.590;-122.498;2022-12-05T11:15:05;101203.54;;;1.46;74.68
50632;BME280;49583;45.590;-122.498;2022-12-05T11:17:28;101199.61;;;1.44;74.55
50632;BME280;49583;45.590;-122.498;2022-12-05T11:19:43;101199.63;;;1.40;74.68
50632;BME280;49583;45.590;-122.498;2022-12-05T11:21:57;101198.91;;;1.39;74.72
50632;BME280;49583;45.590;-122.498;2022-12-05T11:24:23;101200.92;;;1.37;74.71
50632;BME280;49583;45.590;-122.498;2022-12-05T11:26:39;101203.64;;;1.34;74.62
50632;BME280;49583;45.590;-122.498;2022-12-05T11:28:53;101200.98;;;1.31;74.60
50632;BME280;49583;45.590;-122.498;2022-12-05T11:31:17;101199.33;;;1.29;74.75
50632;BME280;49583;45.590;-122.498;2022-12-05T11:33:34;101198.80;;;1.26;74.75
50632;BME280;49583;45.590;-122.498;2022-12-05T11:35:49;101195.02;;;1.23;74.68
50632;BME280;49583;45.590;-122.498;2022-12-05T11:38:04;101196.77;;;1.20;74.69
50632;BME280;49583;45.590;-122.498;2022-12-05T11:40:29;101195.80;;;1.19;74.88
50632;BME280;49583;45.590;-122.498;2022-12-05T11:43:13;101188.58;;;1.17;74.74